createdAt,value
2022-10-03T00:01:44.995Z,1.00
2022-10-03T00:04:49.156Z,1.00
2022-10-03T00:08:06.344Z,1.00
2022-10-03T00:11:30.172Z,1.00
2022-10-03T00:14:57.340Z,1.00
2022-10-03T00:17:53.137Z,1.00
2022-10-03T00:21:11.237Z,1.00
2022-10-03T00:24:36.153Z,1.00
2022-10-03T00:27:51.424Z,1.00
2022-10-03T00:30:32.317Z,1.00
2022-10-03T00:33:57.423Z,1.00
2022-10-03T00:36:57.359Z,1.00
2022-10-03T00:40:07.284Z,1.00
2022-10-03T00:43:03.185Z,1.00
2022-10-03T00:46:24.494Z,1.00
2022-10-03T00:49:39.295Z,1.00
2022-10-03T00:52:19.606Z,1.00
2022-10-03T00:55:11.148Z,1.00
2022-10-03T00:58:26.055Z,1.00
2022-10-03T01:01:32.169Z,1.00
2022-10-03T01:04:51.455Z,1.00
2022-10-03T01:08:13.198Z,1.00
2022-10-03T01:11:26.150Z,1.00
2022-10-03T01:14:39.095Z,1.00
2022-10-03T01:17:36.669Z,99.90
2022-10-03T01:21:19.475Z,99.90
2022-10-03T01:24:23.568Z,99.90
2022-10-03T01:30:50.062Z,99.90
2022-10-03T01:33:37.171Z,99.90
2022-10-03T01:36:41.496Z,99.90
2022-10-03T01:39:57.157Z,99.90
2022-10-03T01:43:03.843Z,99.90
2022-10-03T01:46:49.824Z,99.90
2022-10-03T01:49:59.938Z,99.90
2022-10-03T01:53:13.183Z,99.90
2022-10-03T01:56:32.851Z,99.90
2022-10-03T01:59:37.168Z,99.90
2022-10-03T02:02:42.068Z,99.90
2022-10-03T02:05:45.141Z,99.90
2022-10-03T02:08:45.865Z,99.90
2022-10-03T02:11:48.119Z,99.90
2022-10-03T02:14:46.104Z,99.90
2022-10-03T02:18:06.239Z,99.90
2022-10-03T02:21:38.355Z,99.90
2022-10-03T02:24:27.326Z,99.90
2022-10-03T02:27:23.352Z,99.90
2022-10-03T02:30:37.227Z,99.90
2022-10-03T02:33:52.378Z,99.90
2022-10-03T02:37:34.718Z,99.90
2022-10-03T02:40:50.376Z,99.90
2022-10-03T02:44:15.168Z,99.90
2022-10-03T02:47:17.853Z,99.90
2022-10-03T02:50:55.236Z,99.90
2022-10-03T02:53:46.289Z,99.90
2022-10-03T02:57:13.379Z,99.90
2022-10-03T02:59:52.344Z,99.90
2022-10-03T03:03:32.121Z,99.90
2022-10-03T03:06:20.846Z,99.90
2022-10-03T03:09:30.155Z,99.90
2022-10-03T03:12:50.854Z,99.90
2022-10-03T03:16:06.230Z,99.90
2022-10-03T03:19:49.170Z,99.90
2022-10-03T03:23:02.969Z,1.00
2022-10-03T03:26:00.988Z,1.00
2022-10-03T03:29:04.176Z,1.00
2022-10-03T03:32:22.050Z,1.00
2022-10-03T03:35:55.150Z,1.00
2022-10-03T03:38:58.409Z,1.00
2022-10-03T03:42:35.659Z,1.00
2022-10-03T03:45:33.198Z,1.00
2022-10-03T03:49:11.149Z,1.00
2022-10-03T03:52:24.011Z,1.00
2022-10-03T03:55:53.478Z,1.00
2022-10-03T03:59:01.330Z,1.00
2022-10-03T04:02:35.363Z,1.00
2022-10-03T04:05:18.401Z,1.00
2022-10-03T04:08:19.270Z,1.00
2022-10-03T04:11:18.914Z,1.00
2022-10-03T04:14:41.257Z,1.00
2022-10-03T04:17:50.298Z,1.00
2022-10-03T04:20:43.727Z,1.00
2022-10-03T04:24:02.821Z,1.00
2022-10-03T04:27:19.300Z,1.00
2022-10-03T04:30:36.526Z,1.00
2022-10-03T04:33:42.202Z,1.00
2022-10-03T04:36:25.962Z,1.00
2022-10-03T04:39:28.256Z,1.00
2022-10-03T04:42:41.026Z,1.00
2022-10-03T04:45:58.223Z,1.00
2022-10-03T04:52:31.243Z,1.00
2022-10-03T04:55:27.860Z,1.00
2022-10-03T04:58:24.170Z,1.00
2022-10-03T05:01:06.698Z,1.00
2022-10-03T05:04:34.333Z,1.00
2022-10-03T05:22:50.184Z,99.90
2022-10-03T05:25:41.414Z,99.90
2022-10-03T05:28:45.215Z,99.90
2022-10-03T05:31:33.860Z,99.90
2022-10-03T05:34:43.144Z,99.90
2022-10-03T05:38:05.811Z,99.90
2022-10-03T05:40:56.107Z,99.90
2022-10-03T05:44:22.134Z,99.90
2022-10-03T05:47:57.300Z,99.90
2022-10-03T05:50:59.886Z,99.90
2022-10-03T05:54:38.353Z,99.90
2022-10-03T05:57:44.307Z,99.90
2022-10-03T06:00:34.394Z,1.00
2022-10-03T06:03:32.577Z,99.90
2022-10-03T06:06:33.212Z,99.90
2022-10-03T06:09:39.992Z,99.90
2022-10-03T06:12:42.231Z,99.90
2022-10-03T06:15:57.149Z,99.90
2022-10-03T06:19:19.609Z,99.90
2022-10-03T06:23:05.940Z,99.90
2022-10-03T06:26:36.249Z,1.40
2022-10-03T06:29:54.546Z,1.00
2022-10-03T06:32:57.694Z,1.00
2022-10-03T06:36:34.047Z,1.00
2022-10-03T06:39:54.340Z,1.00
2022-10-03T06:47:12.380Z,1.00
2022-10-03T06:50:40.358Z,1.00
2022-10-03T06:53:43.354Z,1.00
2022-10-03T06:56:57.824Z,1.00
2022-10-03T07:01:16.866Z,1.00
2022-10-03T07:04:52.046Z,1.00
2022-10-03T07:08:32.718Z,1.00
2022-10-03T07:12:01.239Z,1.00
2022-10-03T07:14:46.561Z,1.00
2022-10-03T07:17:54.266Z,1.00
2022-10-03T07:21:32.473Z,1.00
2022-10-03T07:25:03.688Z,1.00
2022-10-03T07:28:33.688Z,1.00
2022-10-03T07:31:36.952Z,1.00
2022-10-03T07:35:55.317Z,1.00
2022-10-03T07:39:33.072Z,1.00
2022-10-03T07:42:50.294Z,1.00
2022-10-03T07:45:41.123Z,1.00
2022-10-03T07:49:11.491Z,1.00
2022-10-03T07:52:23.641Z,1.00
2022-10-03T07:55:35.259Z,1.00
2022-10-03T07:58:29.032Z,1.00
2022-10-03T08:01:54.510Z,1.00
2022-10-03T08:05:13.802Z,1.00
2022-10-03T08:08:59.184Z,1.00
2022-10-03T08:12:26.898Z,1.00
2022-10-03T08:15:28.479Z,1.00
2022-10-03T08:18:24.026Z,1.00
2022-10-03T08:21:21.381Z,1.00
2022-10-03T08:24:21.857Z,1.00
2022-10-03T08:27:51.378Z,1.00
2022-10-03T08:30:43.701Z,1.00
2022-10-03T08:33:48.558Z,1.00
2022-10-03T08:37:08.062Z,1.00
2022-10-03T08:40:27.114Z,1.00
2022-10-03T08:43:29.184Z,1.00
2022-10-03T08:46:44.680Z,1.00
2022-10-03T08:49:51.943Z,1.00
2022-10-03T08:53:09.426Z,1.00
2022-10-03T08:56:07.920Z,1.00
2022-10-03T08:59:04.149Z,1.00
2022-10-03T09:02:18.183Z,1.00
2022-10-03T09:05:42.275Z,1.00
2022-10-03T09:08:41.685Z,1.00
2022-10-03T09:11:36.475Z,1.00
2022-10-03T09:14:40.441Z,23.90
2022-10-03T09:18:00.297Z,92.80
2022-10-03T09:21:07.236Z,99.90
2022-10-03T09:24:14.294Z,99.90
2022-10-03T09:27:19.819Z,99.90
2022-10-03T09:30:43.305Z,1.00
2022-10-03T09:34:21.843Z,1.00
2022-10-03T09:37:11.664Z,61.50
2022-10-03T09:40:24.578Z,63.30
2022-10-03T09:43:45.367Z,99.90
2022-10-03T09:46:42.967Z,99.90
2022-10-03T09:49:48.309Z,1.00
2022-10-03T09:53:02.662Z,1.00
2022-10-03T09:55:47.402Z,1.00
2022-10-03T09:58:46.919Z,99.90
2022-10-03T10:01:46.501Z,99.90
2022-10-03T10:04:53.274Z,99.90
2022-10-03T10:08:26.264Z,99.90
2022-10-03T10:11:34.904Z,99.90
2022-10-03T10:14:46.340Z,1.00
2022-10-03T10:17:48.926Z,1.00
2022-10-03T10:20:50.215Z,1.00
2022-10-03T10:23:45.120Z,99.90
2022-10-03T10:27:15.231Z,99.90
2022-10-03T10:30:06.300Z,99.90
2022-10-03T10:33:17.351Z,99.90
2022-10-03T10:36:18.004Z,99.90
2022-10-03T10:39:38.280Z,1.00
2022-10-03T10:42:45.315Z,1.00
2022-10-03T10:46:04.318Z,99.90
2022-10-03T10:49:17.727Z,99.90
2022-10-03T10:52:13.309Z,99.90
2022-10-03T10:55:31.147Z,99.90
2022-10-03T10:58:45.272Z,1.00
2022-10-03T11:02:06.070Z,1.00
2022-10-03T11:05:30.542Z,99.90
2022-10-03T11:08:17.946Z,1.00
2022-10-03T11:11:58.349Z,99.90
2022-10-03T11:15:01.986Z,68.30
2022-10-03T11:17:48.328Z,79.80
2022-10-03T11:20:52.833Z,99.90
2022-10-03T11:24:36.376Z,99.90
2022-10-03T11:27:22.178Z,1.00
2022-10-03T11:30:14.260Z,99.90
2022-10-03T11:33:01.861Z,1.00
2022-10-03T11:35:56.257Z,1.00
2022-10-03T11:38:36.417Z,1.00
2022-10-03T11:41:48.279Z,50.60
2022-10-03T11:44:34.274Z,1.00
2022-10-03T11:47:50.441Z,1.00
2022-10-03T11:50:33.248Z,99.90
2022-10-03T11:53:47.300Z,99.90
2022-10-03T11:56:47.339Z,99.90
2022-10-03T11:59:39.297Z,99.90
2022-10-03T12:02:30.175Z,99.90
2022-10-03T12:05:30.618Z,99.90
2022-10-03T12:08:46.683Z,1.00
2022-10-03T12:11:47.298Z,1.00
2022-10-03T12:14:49.821Z,1.00
2022-10-03T12:17:49.019Z,1.00
2022-10-03T12:20:23.270Z,99.90
2022-10-03T12:23:25.593Z,99.90
2022-10-03T12:25:54.510Z,99.90
2022-10-03T12:28:37.428Z,99.90
2022-10-03T12:31:43.648Z,99.90
2022-10-03T12:35:38.571Z,1.00
2022-10-03T12:38:51.146Z,1.00
2022-10-03T12:42:02.627Z,1.00
2022-10-03T12:44:48.747Z,99.90
2022-10-03T12:47:56.180Z,99.90
2022-10-03T12:51:02.062Z,99.90
2022-10-03T12:53:59.449Z,1.00
2022-10-03T12:56:51.514Z,99.90
2022-10-03T13:00:10.512Z,99.90
2022-10-03T13:06:19.418Z,99.90
2022-10-03T13:09:11.423Z,75.30
2022-10-03T13:12:40.951Z,99.90
2022-10-03T13:15:48.241Z,1.00
2022-10-03T13:18:52.451Z,1.00
2022-10-03T13:21:55.800Z,1.00
2022-10-03T13:24:37.285Z,1.00
2022-10-03T13:27:32.592Z,1.00
2022-10-03T13:30:22.355Z,1.00
2022-10-03T13:33:19.340Z,99.90
2022-10-03T13:36:09.279Z,99.90
2022-10-03T13:39:11.442Z,99.90
2022-10-03T13:42:31.326Z,1.00
2022-10-03T13:45:21.327Z,1.00
2022-10-03T13:48:14.293Z,99.90
2022-10-03T13:50:52.975Z,99.90
2022-10-03T13:53:46.383Z,99.90
2022-10-03T13:57:03.208Z,99.90
2022-10-03T14:00:19.292Z,99.90
2022-10-03T14:03:17.499Z,99.90
2022-10-03T14:06:06.308Z,99.90
2022-10-03T14:09:26.165Z,99.90
2022-10-03T14:12:55.025Z,99.90
2022-10-03T14:15:50.628Z,99.90
2022-10-03T14:19:16.346Z,73.00
2022-10-03T14:22:38.352Z,1.00
2022-10-03T14:25:23.286Z,1.00
2022-10-03T14:28:17.247Z,1.00
2022-10-03T14:31:22.166Z,20.50
2022-10-03T14:33:58.786Z,1.00
2022-10-03T14:36:53.372Z,37.60
2022-10-03T14:39:39.721Z,99.90
2022-10-03T14:42:47.307Z,34.80
2022-10-03T14:45:18.931Z,99.90
2022-10-03T14:48:06.362Z,76.90
2022-10-03T14:50:39.223Z,99.90
2022-10-03T14:53:33.306Z,99.90
2022-10-03T14:56:11.812Z,99.90
2022-10-03T14:58:55.337Z,99.90
2022-10-03T15:01:28.748Z,14.20
2022-10-03T15:04:37.382Z,66.90
2022-10-03T15:07:06.406Z,99.90
2022-10-03T15:09:56.374Z,94.50
2022-10-03T15:12:31.261Z,99.90
2022-10-03T15:15:25.314Z,99.90
2022-10-03T15:17:56.855Z,99.90
2022-10-03T15:20:48.329Z,99.90
2022-10-03T15:23:39.926Z,1.00
2022-10-03T15:26:25.370Z,99.90
2022-10-03T15:28:59.802Z,99.90
2022-10-03T15:31:49.501Z,99.90
2022-10-03T15:34:33.255Z,1.00
2022-10-03T15:37:30.381Z,1.00
2022-10-03T15:40:04.339Z,1.00
2022-10-03T15:42:49.353Z,1.00
2022-10-03T15:45:29.492Z,1.00
2022-10-03T15:48:09.291Z,1.00
2022-10-03T15:50:43.625Z,1.00
2022-10-03T15:53:42.428Z,1.00
2022-10-03T15:56:46.244Z,1.00
2022-10-03T15:59:40.365Z,1.00
2022-10-03T16:02:20.128Z,1.00
2022-10-03T16:04:58.342Z,1.00
2022-10-03T16:08:03.326Z,1.00
2022-10-03T16:11:11.642Z,1.00
2022-10-03T16:13:53.502Z,1.00
2022-10-03T16:16:49.418Z,1.00
2022-10-03T16:19:45.659Z,1.00
2022-10-03T16:22:31.462Z,1.00
2022-10-03T16:25:39.378Z,1.00
2022-10-03T16:28:21.523Z,1.00
2022-10-03T16:30:58.587Z,51.50
2022-10-03T16:33:49.360Z,99.90
2022-10-03T16:36:21.798Z,99.90
2022-10-03T16:39:08.602Z,99.90
2022-10-03T16:41:44.157Z,1.00
2022-10-03T16:44:57.309Z,1.00
2022-10-03T16:47:36.566Z,99.90
